Time,TemperatureF,DewpointF,PressureIn,WindDirection,WindDirectionDegrees,WindSpeedMPH,WindSpeedGustMPH,Humidity,HourlyPrecipIn,Conditions,Clouds,dailyrainin,SoftwareType,DateUTC
2013-11-18 00:17:00,56.6,56.6,26.62,SSW,199,0.0,0.0,100,0.00,,,-99.99,VWS V12.07,2013-11-18 05:17:00,
2013-11-18 00:48:00,56.7,56.7,26.61,SSE,167,0.0,0.0,100,0.00,,,-99.99,VWS V12.07,2013-11-18 05:48:00,
2013-11-18 01:17:00,56.5,56.5,26.59,SSE,165,0.0,0.0,100,0.00,,,-99.99,VWS V12.07,2013-11-18 06:17:00,
2013-11-18 01:47:00,55.9,55.9,26.59,West,265,0.0,0.0,100,0.00,,,-99.99,VWS V12.07,2013-11-18 06:47:00,
2013-11-18 02:17:00,55.4,55.4,26.61,SSW,200,0.0,0.0,100,0.05,,,-99.99,VWS V12.07,2013-11-18 07:17:00,
2013-11-18 02:47:00,53.9,53.9,26.61,SW,217,0.0,0.0,100,0.06,,,-99.99,VWS V12.07,2013-11-18 07:47:00,
2013-11-18 03:17:00,52.7,52.7,26.64,SSW,210,0.0,0.0,100,0.01,,,-99.99,VWS V12.07,2013-11-18 08:17:00,
2013-11-18 03:47:00,52.5,52.5,26.64,SW,219,0.0,0.0,100,0.00,,,-99.99,VWS V12.07,2013-11-18 08:47:00,
2013-11-18 04:17:00,52.6,52.6,26.63,SSW,210,0.0,0.0,100,0.00,,,-99.99,VWS V12.07,2013-11-18 09:17:00,
2013-11-18 04:47:00,53.0,53.0,26.63,WSW,245,0.0,0.0,100,0.00,,,-99.99,VWS V12.07,2013-11-18 09:47:00,
2013-11-18 05:17:00,52.4,52.4,26.62,SSW,207,0.0,0.0,100,0.00,,,-99.99,VWS V12.07,2013-11-18 10:17:00,
2013-11-18 05:47:00,52.7,52.7,26.64,SSW,213,0.0,0.0,100,0.00,,,-99.99,VWS V12.07,2013-11-18 10:47:00,
2013-11-18 06:17:00,52.1,52.1,26.65,SSW,202,0.0,0.0,100,0.00,,,-99.99,VWS V12.07,2013-11-18 11:17:00,
2013-11-18 06:47:00,50.9,50.9,26.65,SW,228,0.0,0.0,100,0.00,,,-99.99,VWS V12.07,2013-11-18 11:47:00,
2013-11-18 07:17:00,49.9,49.9,26.65,WSW,253,0.0,0.0,100,0.00,,,-99.99,VWS V12.07,2013-11-18 12:17:00,
2013-11-18 07:47:00,50.0,50.0,26.64,SW,229,0.0,0.0,100,0.00,,,-99.99,VWS V12.07,2013-11-18 12:47:00,
2013-11-18 08:17:00,50.8,49.4,26.64,WSW,250,0.0,0.0,95,0.00,,,-99.99,VWS V12.07,2013-11-18 13:17:00,
2013-11-18 08:47:00,52.3,49.5,26.65,South,184,0.0,0.0,90,0.00,,,-99.99,VWS V12.07,2013-11-18 13:47:00,
2013-11-18 09:17:00,52.6,48.8,26.66,SSW,208,0.0,0.0,87,0.00,,,-99.99,VWS V12.07,2013-11-18 14:17:00,
2013-11-18 09:48:00,52.6,48.8,26.66,SSW,199,0.0,0.0,87,0.00,,,-99.99,VWS V12.07,2013-11-18 14:48:00,
2013-11-18 10:18:00,51.9,47.2,26.66,South,182,0.0,0.0,84,0.00,,,-99.99,VWS V12.07,2013-11-18 15:18:00,
2013-11-18 10:48:00,53.7,49.3,26.67,WNW,289,0.0,0.0,85,0.00,,,-99.99,VWS V12.07,2013-11-18 15:48:00,
2013-11-18 11:18:00,53.5,46.5,26.67,South,180,0.0,0.0,77,0.00,,,-99.99,VWS V12.07,2013-11-18 16:18:00,
2013-11-18 11:48:00,54.5,45.3,26.67,SW,220,0.0,0.0,71,0.00,,,-99.99,VWS V12.07,2013-11-18 16:48:00,
2013-11-18 12:18:00,53.6,40.5,26.67,SW,220,0.0,0.0,61,0.00,,,-99.99,VWS V12.07,2013-11-18 17:18:00,
2013-11-18 12:48:00,54.3,39.0,26.66,South,176,0.0,0.0,56,0.00,,,-99.99,VWS V12.07,2013-11-18 17:48:00,
2013-11-18 13:18:00,53.9,39.5,26.66,South,187,0.0,0.0,58,0.00,,,-99.99,VWS V12.07,2013-11-18 18:18:00,
2013-11-18 13:47:00,54.2,39.8,26.66,SW,216,0.0,0.0,58,0.00,,,-99.99,VWS V12.07,2013-11-18 18:47:00,
2013-11-18 14:17:00,54.2,38.4,26.66,SSW,212,0.0,0.0,55,0.00,,,-99.99,VWS V12.07,2013-11-18 19:17:00,
2013-11-18 14:47:00,54.2,39.3,26.66,SW,217,0.0,0.0,57,0.00,,,-99.99,VWS V12.07,2013-11-18 19:47:00,
2013-11-18 15:17:00,53.3,38.5,26.66,SSW,213,0.0,0.0,57,0.00,,,-99.99,VWS V12.07,2013-11-18 20:17:00,
2013-11-18 15:47:00,52.6,39.1,26.66,SW,217,0.0,0.0,60,0.00,,,-99.99,VWS V12.07,2013-11-18 20:47:00,
2013-11-18 16:17:00,51.2,35.1,26.66,South,185,0.0,0.0,54,0.00,,,-99.99,VWS V12.07,2013-11-18 21:17:00,
2013-11-18 16:48:00,49.2,36.3,26.65,SW,230,0.0,0.0,61,0.00,,,-99.99,VWS V12.07,2013-11-18 21:48:00,
2013-11-18 17:17:00,47.8,33.3,26.66,WSW,252,0.0,0.0,57,0.00,,,-99.99,VWS V12.07,2013-11-18 22:17:00,
2013-11-18 17:47:00,47.2,32.8,26.66,WSW,243,0.0,0.0,57,0.00,,,-99.99,VWS V12.07,2013-11-18 22:47:00,
2013-11-18 18:17:00,46.5,33.0,26.65,SW,236,0.0,0.0,59,0.00,,,-99.99,VWS V12.07,2013-11-18 23:17:00,
2013-11-18 18:47:00,45.7,33.0,26.65,South,182,0.0,0.0,61,0.00,,,-99.99,VWS V12.07,2013-11-18 23:47:00,
2013-11-18 19:17:00,45.1,33.7,26.66,SW,227,0.0,0.0,64,0.00,,,-99.99,VWS V12.07,2013-11-19 00:17:00,
2013-11-18 19:47:00,44.2,33.2,26.67,SSW,195,0.0,0.0,65,0.00,,,-99.99,VWS V12.07,2013-11-19 00:47:00,
2013-11-18 20:17:00,43.0,33.2,26.68,WSW,237,0.0,0.0,68,0.00,,,-99.99,VWS V12.07,2013-11-19 01:17:00,
2013-11-18 20:47:00,42.6,32.8,26.68,WSW,254,0.0,0.0,68,0.00,,,-99.99,VWS V12.07,2013-11-19 01:47:00,
2013-11-18 21:17:00,41.7,32.7,26.70,NW,306,0.0,0.0,70,0.00,,,-99.99,VWS V12.07,2013-11-19 02:17:00,
2013-11-18 21:47:00,41.1,31.4,26.71,WNW,298,0.0,0.0,68,0.00,,,-99.99,VWS V12.07,2013-11-19 02:47:00,
2013-11-18 22:17:00,39.9,30.6,26.71,WNW,303,0.0,0.0,69,0.00,,,-99.99,VWS V12.07,2013-11-19 03:17:00,
2013-11-18 22:47:00,39.0,30.1,26.71,West,269,0.0,0.0,70,0.00,,,-99.99,VWS V12.07,2013-11-19 03:47:00,
2013-11-18 23:17:00,38.3,28.3,26.71,WSW,238,0.0,0.0,67,0.00,,,-99.99,VWS V12.07,2013-11-19 04:17:00,
2013-11-18 23:48:00,37.7,26.6,26.70,NW,323,0.0,0.0,64,0.00,,,-99.99,VWS V12.07,2013-11-19 04:48:00,